Time;durP1;ratioP1;P1;durP2;ratioP2;P2;SDS_P1;SDS_P2;PMS_P1;PMS_P2;Temp;Humidity;BMP_temperature;BMP_pressure;BME280_temperature;BME280_humidity;BME280_pressure;Samples;Min_cycle;Max_cycle;Signal;HPM_P1;HPM_P2
2023/07/02 00:01:12;;;;;;;15.52;6.90;;;;;;;;;;5051315;28;20109;-91
2023/07/02 00:03:39;;;;;;;21.38;7.40;;;;;;;;;;5034480;28;20046;-93
2023/07/02 00:06:05;;;;;;;18.67;7.32;;;;;;;;;;5029339;28;20050;-91
2023/07/02 00:08:31;;;;;;;18.88;7.00;;;;;;;;;;5033083;28;20049;-92
2023/07/02 00:10:57;;;;;;;16.33;6.75;;;;;;;;;;5050877;28;20045;-94
2023/07/02 00:13:23;;;;;;;14.65;6.55;;;;;;;;;;5043192;28;20076;-91
2023/07/02 00:15:49;;;;;;;15.77;7.00;;;;;;;;;;5043048;28;20050;-93
2023/07/02 00:18:16;;;;;;;18.20;7.20;;;;;;;;;;5055686;28;20106;-94
2023/07/02 00:20:42;;;;;;;18.02;7.43;;;;;;;;;;5020046;28;20096;-92
2023/07/02 00:23:09;;;;;;;17.48;7.88;;;;;;;;;;5012090;28;20065;-93
2023/07/02 00:25:35;;;;;;;17.13;7.80;;;;;;;;;;5050035;28;20406;-93
2023/07/02 00:28:01;;;;;;;20.92;7.57;;;;;;;;;;5020840;28;20057;-93
2023/07/02 00:30:27;;;;;;;21.80;8.32;;;;;;;;;;4987238;28;20052;-93
2023/07/02 00:32:54;;;;;;;19.17;7.38;;;;;;;;;;5032320;28;20045;-91
2023/07/02 00:35:20;;;;;;;19.50;7.32;;;;;;;;;;5049615;28;20128;-94
2023/07/02 00:37:46;;;;;;;20.60;7.65;;;;;;;;;;5027616;28;20088;-93
2023/07/02 00:40:12;;;;;;;22.48;8.07;;;;;;;;;;5019557;28;20066;-92
2023/07/02 00:42:38;;;;;;;20.63;8.05;;;;;;;;;;5057647;28;20108;-92
2023/07/02 00:45:04;;;;;;;20.85;7.90;;;;;;;;;;5033740;28;20228;-93
2023/07/02 00:47:34;;;;;;;28.33;8.10;;;;;;;;;;4996815;28;20505;-90
2023/07/02 00:50:01;;;;;;;17.98;7.72;;;;;;;;;;5030076;28;20043;-92
2023/07/02 00:52:27;;;;;;;23.13;8.38;;;;;;;;;;5042085;28;20371;-92
2023/07/02 00:54:53;;;;;;;19.27;8.73;;;;;;;;;;5058915;28;20045;-92
2023/07/02 00:57:19;;;;;;;21.73;8.88;;;;;;;;;;5032141;28;20141;-92
2023/07/02 00:59:46;;;;;;;21.30;8.35;;;;;;;;;;5073315;28;20045;-91
2023/07/02 01:02:12;;;;;;;23.95;9.85;;;;;;;;;;5056407;28;20046;-92
2023/07/02 01:04:38;;;;;;;26.92;9.15;;;;;;;;;;5020710;28;20050;-93
2023/07/02 01:07:09;;;;;;;23.45;9.07;;;;;;;;;;5022848;28;20041;-92
2023/07/02 01:09:35;;;;;;;28.08;8.85;;;;;;;;;;5041884;28;20509;-94
2023/07/02 01:12:06;;;;;;;20.83;8.75;;;;;;;;;;5039625;28;20081;-91
2023/07/02 01:14:33;;;;;;;25.05;9.50;;;;;;;;;;5027814;28;20042;-91
2023/07/02 01:17:00;;;;;;;20.42;8.30;;;;;;;;;;5008558;28;20136;-92
2023/07/02 01:19:52;;;;;;;24.42;9.32;;;;;;;;;;5061164;28;20054;-92
2023/07/02 01:22:23;;;;;;;21.02;9.38;;;;;;;;;;5020456;28;20050;-93
2023/07/02 01:24:49;;;;;;;31.58;9.10;;;;;;;;;;5048317;28;20470;-92
2023/07/02 01:27:16;;;;;;;25.73;9.20;;;;;;;;;;5017319;28;20045;-93
2023/07/02 01:29:44;;;;;;;27.25;9.55;;;;;;;;;;5073556;28;20058;-92
2023/07/02 01:32:10;;;;;;;24.00;9.27;;;;;;;;;;5031059;28;20041;-92
2023/07/02 01:34:36;;;;;;;23.65;9.02;;;;;;;;;;5054889;28;20536;-91
2023/07/02 01:37:03;;;;;;;23.38;9.23;;;;;;;;;;4985385;28;20864;-93
2023/07/02 01:39:29;;;;;;;27.23;10.63;;;;;;;;;;5065421;28;21045;-93
2023/07/02 01:41:56;;;;;;;27.35;9.40;;;;;;;;;;5012485;28;20054;-92
2023/07/02 01:44:22;;;;;;;22.13;9.52;;;;;;;;;;5055645;28;20639;-92
2023/07/02 01:46:48;;;;;;;30.05;10.05;;;;;;;;;;5054756;28;20050;-92
2023/07/02 01:49:15;;;;;;;25.30;9.70;;;;;;;;;;5041476;28;20097;-92
2023/07/02 01:51:41;;;;;;;27.88;10.13;;;;;;;;;;5035024;28;20049;-93
2023/07/02 01:54:07;;;;;;;31.55;10.48;;;;;;;;;;5048604;28;20421;-92
2023/07/02 01:56:33;;;;;;;27.98;9.82;;;;;;;;;;5047305;28;20542;-93
2023/07/02 01:58:59;;;;;;;22.02;9.30;;;;;;;;;;5001768;28;20056;-92
2023/07/02 02:01:25;;;;;;;25.98;9.85;;;;;;;;;;5020966;28;20066;-93
2023/07/02 02:03:51;;;;;;;29.27;9.68;;;;;;;;;;5000042;28;20050;-92
2023/07/02 02:06:20;;;;;;;26.38;10.10;;;;;;;;;;5063161;28;20073;-90
2023/07/02 02:08:46;;;;;;;33.72;10.73;;;;;;;;;;5050637;28;20504;-91
2023/07/02 02:11:12;;;;;;;26.50;10.10;;;;;;;;;;5053163;28;20042;-91
2023/07/02 02:13:38;;;;;;;21.15;9.45;;;;;;;;;;5053159;28;20045;-92
2023/07/02 02:16:04;;;;;;;29.40;10.30;;;;;;;;;;5069966;28;20045;-92
2023/07/02 02:18:33;;;;;;;32.05;11.00;;;;;;;;;;5063856;28;20468;-90
2023/07/02 02:20:59;;;;;;;28.30;10.20;;;;;;;;;;5045767;28;20391;-90
2023/07/02 02:23:25;;;;;;;27.70;9.77;;;;;;;;;;5044035;28;20124;-91
2023/07/02 02:25:51;;;;;;;28.00;10.23;;;;;;;;;;5010497;28;20042;-92
2023/07/02 02:28:17;;;;;;;26.80;9.88;;;;;;;;;;5054178;28;20410;-92
2023/07/02 02:30:43;;;;;;;26.50;9.85;;;;;;;;;;5069329;28;20878;-92
2023/07/02 02:33:09;;;;;;;31.63;10.30;;;;;;;;;;5001278;28;20046;-92
2023/07/02 02:35:35;;;;;;;25.08;9.95;;;;;;;;;;5038073;28;20343;-90
2023/07/02 02:38:04;;;;;;;33.83;11.02;;;;;;;;;;5069865;28;20081;-92
2023/07/02 02:40:32;;;;;;;36.15;11.95;;;;;;;;;;4983201;28;20096;-89
2023/07/02 02:42:58;;;;;;;29.23;10.48;;;;;;;;;;5073369;28;20118;-91
2023/07/02 02:45:29;;;;;;;32.08;10.60;;;;;;;;;;5042242;28;20126;-93
2023/07/02 02:47:58;;;;;;;28.80;9.95;;;;;;;;;;5048488;28;20049;-92
2023/07/02 02:50:24;;;;;;;30.02;11.18;;;;;;;;;;5046725;28;21249;-92
2023/07/02 02:52:50;;;;;;;27.83;10.68;;;;;;;;;;5041980;28;20262;-92
2023/07/02 02:55:16;;;;;;;31.13;11.05;;;;;;;;;;4995958;28;20043;-92
2023/07/02 02:57:42;;;;;;;30.05;10.55;;;;;;;;;;5079982;28;20048;-92
2023/07/02 03:00:09;;;;;;;28.83;11.15;;;;;;;;;;5033060;28;20434;-91
2023/07/02 03:02:35;;;;;;;31.90;11.20;;;;;;;;;;5025830;28;20046;-91
2023/07/02 03:05:02;;;;;;;34.10;11.18;;;;;;;;;;5037244;28;20041;-92
2023/07/02 03:07:28;;;;;;;34.00;11.20;;;;;;;;;;5053226;28;20045;-90
2023/07/02 03:09:54;;;;;;;29.42;9.82;;;;;;;;;;5030688;28;20232;-92
2023/07/02 03:12:20;;;;;;;29.73;10.38;;;;;;;;;;5044816;28;20125;-92
2023/07/02 03:14:47;;;;;;;27.55;10.77;;;;;;;;;;5050482;28;20138;-92
2023/07/02 03:17:13;;;;;;;29.60;10.60;;;;;;;;;;5067520;28;20579;-92
2023/07/02 03:19:40;;;;;;;25.50;10.18;;;;;;;;;;5045233;28;20042;-89
2023/07/02 03:22:06;;;;;;;31.67;10.70;;;;;;;;;;5056747;28;20050;-92
2023/07/02 03:24:32;;;;;;;29.55;10.95;;;;;;;;;;5019383;28;20042;-90
2023/07/02 03:26:58;;;;;;;28.40;11.15;;;;;;;;;;5003006;28;20046;-92
2023/07/02 03:29:24;;;;;;;28.10;11.10;;;;;;;;;;4997310;28;20045;-91
2023/07/02 03:31:50;;;;;;;28.42;10.32;;;;;;;;;;5044742;28;20099;-92
2023/07/02 03:34:16;;;;;;;29.52;10.98;;;;;;;;;;5072053;28;20050;-92
2023/07/02 03:36:44;;;;;;;28.35;10.82;;;;;;;;;;5063534;28;20103;-92
2023/07/02 03:39:10;;;;;;;27.10;10.65;;;;;;;;;;5031348;28;20411;-91
2023/07/02 03:41:36;;;;;;;33.35;11.40;;;;;;;;;;5052375;28;20046;-93
2023/07/02 03:44:02;;;;;;;29.63;11.10;;;;;;;;;;5046866;28;20161;-92
2023/07/02 03:46:30;;;;;;;30.10;10.93;;;;;;;;;;5039515;28;20042;-93
2023/07/02 03:48:56;;;;;;;28.77;11.77;;;;;;;;;;5011974;28;20075;-93
2023/07/02 03:51:22;;;;;;;36.30;11.57;;;;;;;;;;5060381;28;20042;-93
2023/07/02 03:53:48;;;;;;;29.08;11.13;;;;;;;;;;5010975;28;20050;-93
2023/07/02 03:56:14;;;;;;;25.63;10.65;;;;;;;;;;5036385;28;20501;-93
2023/07/02 03:58:40;;;;;;;29.08;11.13;;;;;;;;;;5004946;28;20138;-92
2023/07/02 04:01:06;;;;;;;35.00;11.50;;;;;;;;;;5011021;28;20565;-91
2023/07/02 04:03:32;;;;;;;25.58;10.35;;;;;;;;;;5076567;28;20044;-91
2023/07/02 04:05:58;;;;;;;29.27;11.13;;;;;;;;;;5025802;28;20049;-93
2023/07/02 04:08:24;;;;;;;29.85;11.25;;;;;;;;;;5073349;28;20094;-93
2023/07/02 04:10:51;;;;;;;30.92;10.88;;;;;;;;;;5030327;28;20471;-92
2023/07/02 04:13:17;;;;;;;28.42;10.50;;;;;;;;;;5074069;28;20488;-93
2023/07/02 04:15:43;;;;;;;29.98;11.13;;;;;;;;;;5035118;28;20069;-92
2023/07/02 04:18:09;;;;;;;27.10;11.10;;;;;;;;;;5055800;28;20118;-94
2023/07/02 04:20:38;;;;;;;26.00;10.93;;;;;;;;;;5025181;28;20048;-93
2023/07/02 04:23:04;;;;;;;30.48;11.52;;;;;;;;;;5034962;28;20587;-91
2023/07/02 04:25:30;;;;;;;31.02;11.15;;;;;;;;;;5034518;28;20090;-93
2023/07/02 04:27:58;;;;;;;32.00;11.45;;;;;;;;;;5040295;28;20058;-94
2023/07/02 04:30:24;;;;;;;33.10;10.43;;;;;;;;;;5073779;28;20498;-92
2023/07/02 04:32:51;;;;;;;34.35;11.82;;;;;;;;;;5047031;28;20046;-94
2023/07/02 04:35:17;;;;;;;26.52;10.65;;;;;;;;;;5055858;28;20045;-92
2023/07/02 04:37:43;;;;;;;27.85;10.82;;;;;;;;;;5042778;28;20516;-93
2023/07/02 04:40:12;;;;;;;30.35;10.73;;;;;;;;;;5041775;28;20072;-92
2023/07/02 04:42:46;;;;;;;29.73;10.82;;;;;;;;;;5053047;28;20067;-94
2023/07/02 04:45:14;;;;;;;29.92;10.90;;;;;;;;;;5059301;28;20135;-93
2023/07/02 04:47:41;;;;;;;30.65;10.77;;;;;;;;;;5052266;28;20038;-93
2023/07/02 04:50:07;;;;;;;30.60;10.38;;;;;;;;;;5047675;28;20050;-92
2023/07/02 04:52:33;;;;;;;28.65;11.13;;;;;;;;;;5051180;28;20042;-94
2023/07/02 04:54:59;;;;;;;29.83;11.50;;;;;;;;;;5063170;28;20046;-93
2023/07/02 04:57:26;;;;;;;29.88;10.95;;;;;;;;;;5014389;28;20089;-92
2023/07/02 04:59:52;;;;;;;32.17;10.95;;;;;;;;;;5021680;28;20107;-93
2023/07/02 05:02:20;;;;;;;27.67;10.57;;;;;;;;;;5054952;28;20044;-93
2023/07/02 05:04:46;;;;;;;28.90;10.63;;;;;;;;;;5054694;28;20086;-93
2023/07/02 05:07:12;;;;;;;25.80;9.82;;;;;;;;;;5017623;28;20513;-93
2023/07/02 05:09:38;;;;;;;28.63;10.60;;;;;;;;;;5008944;28;20046;-93
2023/07/02 05:12:05;;;;;;;26.02;10.40;;;;;;;;;;5045146;28;20038;-92
2023/07/02 05:14:31;;;;;;;30.10;9.43;;;;;;;;;;5052860;28;20050;-93
2023/07/02 05:16:57;;;;;;;29.15;9.85;;;;;;;;;;5025162;28;20088;-94
2023/07/02 05:19:23;;;;;;;29.83;9.65;;;;;;;;;;4984579;28;20843;-92
2023/07/02 05:21:49;;;;;;;30.08;9.73;;;;;;;;;;4977319;28;20135;-92
2023/07/02 05:24:15;;;;;;;32.00;9.77;;;;;;;;;;4968708;28;20398;-92
2023/07/02 05:26:41;;;;;;;25.55;9.07;;;;;;;;;;5001994;28;20054;-92
2023/07/02 05:29:07;;;;;;;24.20;8.63;;;;;;;;;;5003117;28;20522;-94
2023/07/02 05:31:34;;;;;;;30.15;9.32;;;;;;;;;;4999163;28;20050;-91
2023/07/02 05:34:00;;;;;;;24.77;8.57;;;;;;;;;;5004520;28;20046;-92
2023/07/02 05:36:26;;;;;;;30.45;9.60;;;;;;;;;;5004460;28;20516;-92
2023/07/02 05:38:52;;;;;;;23.77;8.43;;;;;;;;;;4963605;28;20045;-94
2023/07/02 05:41:21;;;;;;;29.65;9.00;;;;;;;;;;4977260;28;20085;-92
2023/07/02 05:43:47;;;;;;;23.75;8.88;;;;;;;;;;4982464;28;20212;-93
2023/07/02 05:46:14;;;;;;;23.10;8.52;;;;;;;;;;5008947;28;20485;-93
2023/07/02 05:48:43;;;;;;;30.20;8.57;;;;;;;;;;4975956;28;20054;-94
2023/07/02 05:51:09;;;;;;;26.77;8.88;;;;;;;;;;4970785;28;20046;-93
2023/07/02 05:53:35;;;;;;;24.27;8.48;;;;;;;;;;4986305;28;20137;-93
2023/07/02 05:56:01;;;;;;;24.65;8.27;;;;;;;;;;4978129;28;20141;-94
2023/07/02 05:58:27;;;;;;;22.30;8.23;;;;;;;;;;4974751;28;20474;-93
2023/07/02 06:00:53;;;;;;;22.67;7.72;;;;;;;;;;4973440;28;20138;-94
2023/07/02 06:03:20;;;;;;;24.35;7.68;;;;;;;;;;4980562;28;20435;-95
2023/07/02 06:05:50;;;;;;;22.20;7.75;;;;;;;;;;4981035;28;20782;-94
2023/07/02 06:08:16;;;;;;;20.08;7.55;;;;;;;;;;4991105;28;20187;-92
2023/07/02 06:10:43;;;;;;;23.35;7.93;;;;;;;;;;5006530;28;20060;-92
2023/07/02 06:13:09;;;;;;;21.90;7.40;;;;;;;;;;5004303;28;20050;-93
2023/07/02 06:15:35;;;;;;;22.67;7.43;;;;;;;;;;4964756;28;20045;-92
2023/07/02 06:18:01;;;;;;;22.45;7.80;;;;;;;;;;5009490;28;20087;-93
2023/07/02 06:20:27;;;;;;;19.85;6.70;;;;;;;;;;5066274;28;20481;-92
2023/07/02 06:22:53;;;;;;;21.92;7.40;;;;;;;;;;5046164;28;20095;-93
2023/07/02 06:25:19;;;;;;;16.60;6.90;;;;;;;;;;5057083;28;20042;-92
2023/07/02 06:27:45;;;;;;;18.50;6.93;;;;;;;;;;5063616;28;20409;-96
2023/07/02 06:30:12;;;;;;;18.08;7.03;;;;;;;;;;5036796;28;20044;-92
2023/07/02 06:32:38;;;;;;;18.00;7.32;;;;;;;;;;5047707;28;20542;-93
2023/07/02 06:35:06;;;;;;;21.13;6.90;;;;;;;;;;5030512;28;20045;-92
2023/07/02 06:37:32;;;;;;;21.03;7.23;;;;;;;;;;5025989;28;20861;-94
2023/07/02 06:39:58;;;;;;;22.17;7.05;;;;;;;;;;5055586;28;20388;-93
2023/07/02 06:42:24;;;;;;;20.77;6.88;;;;;;;;;;5004991;28;20294;-93
2023/07/02 06:44:51;;;;;;;20.92;6.82;;;;;;;;;;5045297;28;20047;-93
2023/07/02 06:47:17;;;;;;;21.35;7.57;;;;;;;;;;5024910;28;20074;-92
2023/07/02 06:49:43;;;;;;;23.00;7.35;;;;;;;;;;5061489;28;20059;-94
2023/07/02 06:52:09;;;;;;;29.23;6.70;;;;;;;;;;5053986;28;20079;-93
2023/07/02 06:54:35;;;;;;;20.63;7.00;;;;;;;;;;5005417;28;20144;-94
2023/07/02 06:57:01;;;;;;;17.77;6.25;;;;;;;;;;5036426;28;20468;-94
2023/07/02 06:59:28;;;;;;;21.42;6.68;;;;;;;;;;5071616;28;20054;-92
2023/07/02 07:01:54;;;;;;;21.58;6.45;;;;;;;;;;5071964;28;20516;-93
2023/07/02 07:04:20;;;;;;;18.00;6.70;;;;;;;;;;5052288;28;20040;-94
2023/07/02 07:06:46;;;;;;;17.95;6.53;;;;;;;;;;5085826;28;20082;-95
2023/07/02 07:09:12;;;;;;;16.55;6.50;;;;;;;;;;5031709;28;20091;-93
2023/07/02 07:11:38;;;;;;;20.95;6.40;;;;;;;;;;5066554;28;20043;-94
2023/07/02 07:14:04;;;;;;;16.23;5.95;;;;;;;;;;5050047;28;20057;-93
2023/07/02 07:16:30;;;;;;;20.52;6.00;;;;;;;;;;5030710;28;20040;-91
2023/07/02 07:18:56;;;;;;;15.02;5.05;;;;;;;;;;5008118;28;20562;-90
2023/07/02 07:21:22;;;;;;;14.95;4.75;;;;;;;;;;5027307;28;20789;-90
2023/07/02 07:23:49;;;;;;;13.30;4.80;;;;;;;;;;5064621;28;20498;-91
2023/07/02 07:26:15;;;;;;;15.18;4.63;;;;;;;;;;5068298;28;20069;-90
2023/07/02 07:28:41;;;;;;;15.40;4.55;;;;;;;;;;5028993;28;20050;-90
2023/07/02 07:31:07;;;;;;;15.07;4.90;;;;;;;;;;5029543;28;20103;-89
2023/07/02 07:33:33;;;;;;;14.88;4.00;;;;;;;;;;5049627;28;20050;-90
2023/07/02 07:35:59;;;;;;;13.88;3.67;;;;;;;;;;5053332;28;20056;-91
2023/07/02 07:38:26;;;;;;;13.95;3.70;;;;;;;;;;5046071;28;20050;-89
2023/07/02 07:40:52;;;;;;;14.95;3.50;;;;;;;;;;5055597;28;20042;-88
2023/07/02 07:43:18;;;;;;;11.48;3.85;;;;;;;;;;5073755;28;20135;-88
2023/07/02 07:45:44;;;;;;;9.07;3.65;;;;;;;;;;5014448;28;20043;-89
2023/07/02 07:48:10;;;;;;;12.45;3.72;;;;;;;;;;5049746;28;20493;-88
2023/07/02 07:50:36;;;;;;;10.85;3.50;;;;;;;;;;5056277;28;20052;-89
2023/07/02 07:53:02;;;;;;;17.40;3.53;;;;;;;;;;5052649;28;20045;-91
2023/07/02 07:55:28;;;;;;;14.02;4.10;;;;;;;;;;5049309;28;20031;-90
2023/07/02 07:57:54;;;;;;;10.95;3.42;;;;;;;;;;5050565;28;20490;-88
2023/07/02 08:00:21;;;;;;;12.57;3.50;;;;;;;;;;5063940;28;20049;-87
2023/07/02 08:02:47;;;;;;;12.10;3.80;;;;;;;;;;5054830;28;20581;-90
2023/07/02 08:05:13;;;;;;;12.20;3.70;;;;;;;;;;5034445;28;20054;-89
2023/07/02 08:07:40;;;;;;;10.95;3.70;;;;;;;;;;5047703;28;20049;-88
2023/07/02 08:10:07;;;;;;;13.02;3.40;;;;;;;;;;5045013;28;20057;-88
2023/07/02 08:12:34;;;;;;;10.88;3.25;;;;;;;;;;5046784;28;20096;-90
2023/07/02 08:15:00;;;;;;;9.85;3.53;;;;;;;;;;5050061;28;20042;-89
2023/07/02 08:17:26;;;;;;;13.45;3.28;;;;;;;;;;5041351;28;20057;-90
2023/07/02 08:19:52;;;;;;;12.65;3.35;;;;;;;;;;5054698;28;20569;-88
2023/07/02 08:22:18;;;;;;;15.68;3.60;;;;;;;;;;5029259;28;20137;-88
2023/07/02 08:24:44;;;;;;;11.02;3.95;;;;;;;;;;5062411;28;20058;-90
2023/07/02 08:27:13;;;;;;;14.35;3.65;;;;;;;;;;5035305;28;20091;-89
2023/07/02 08:29:39;;;;;;;;;;;;;;;;;;5052049;28;20056;-90
2023/07/02 08:32:05;;;;;;;11.55;3.63;;;;;;;;;;5052670;28;19920;-91
2023/07/02 08:34:32;;;;;;;8.73;3.67;;;;;;;;;;5077483;28;20055;-89
2023/07/02 08:36:58;;;;;;;9.90;3.40;;;;;;;;;;5052738;28;20115;-90
2023/07/02 08:39:24;;;;;;;7.65;3.03;;;;;;;;;;5037675;28;20748;-87
2023/07/02 08:41:50;;;;;;;11.65;3.55;;;;;;;;;;5039775;28;20505;-90
2023/07/02 08:44:19;;;;;;;16.10;4.00;;;;;;;;;;5016590;28;20061;-89
2023/07/02 08:46:47;;;;;;;17.05;4.18;;;;;;;;;;5058717;28;20416;-89
2023/07/02 08:49:13;;;;;;;15.20;4.03;;;;;;;;;;5046027;28;20434;-90
2023/07/02 08:51:39;;;;;;;10.13;3.35;;;;;;;;;;5050103;28;20034;-90
2023/07/02 08:54:05;;;;;;;10.02;3.70;;;;;;;;;;5011320;28;20041;-89
2023/07/02 08:56:31;;;;;;;12.23;4.07;;;;;;;;;;5057447;28;20053;-89
2023/07/02 08:58:57;;;;;;;13.63;4.15;;;;;;;;;;5066760;28;20062;-90
2023/07/02 09:01:23;;;;;;;10.75;3.95;;;;;;;;;;5049431;28;20053;-89
2023/07/02 09:03:50;;;;;;;11.45;3.90;;;;;;;;;;5075935;28;20057;-89
2023/07/02 09:06:18;;;;;;;7.93;3.35;;;;;;;;;;5028564;28;20038;-89
2023/07/02 09:08:44;;;;;;;17.42;4.47;;;;;;;;;;5058783;28;20051;-89
2023/07/02 09:11:11;;;;;;;10.55;3.53;;;;;;;;;;5054182;28;20046;-89
2023/07/02 09:13:46;;;;;;;14.43;3.97;;;;;;;;;;5026816;28;20053;-89
2023/07/02 09:16:25;;;;;;;12.18;3.95;;;;;;;;;;5052014;28;20057;-90
2023/07/02 09:19:04;;;;;;;10.90;3.60;;;;;;;;;;5056353;28;20063;-89
2023/07/02 09:21:46;;;;;;;14.95;3.90;;;;;;;;;;5057780;28;20058;-86
2023/07/02 09:24:16;;;;;;;10.18;4.13;;;;;;;;;;5044279;28;20546;-88
2023/07/02 09:26:53;;;;;;;10.90;3.92;;;;;;;;;;5001589;28;20049;-90
2023/07/02 09:29:19;;;;;;;13.38;4.10;;;;;;;;;;5043930;28;20037;-91
2023/07/02 09:31:46;;;;;;;9.77;3.92;;;;;;;;;;5071212;28;20045;-91
2023/07/02 09:34:13;;;;;;;12.85;4.50;;;;;;;;;;5050904;28;20054;-90
2023/07/02 09:36:42;;;;;;;15.10;4.10;;;;;;;;;;5034708;28;20042;-89
2023/07/02 09:39:11;;;;;;;10.02;3.70;;;;;;;;;;5044224;28;20416;-89
2023/07/02 09:41:38;;;;;;;10.80;3.40;;;;;;;;;;5044476;28;20401;-89
2023/07/02 09:44:04;;;;;;;9.75;3.67;;;;;;;;;;5040798;28;20042;-91
2023/07/02 09:46:31;;;;;;;12.40;3.70;;;;;;;;;;5033866;28;20665;-91
2023/07/02 09:48:58;;;;;;;16.20;4.10;;;;;;;;;;5033555;28;20123;-92
2023/07/02 09:51:25;;;;;;;14.10;3.70;;;;;;;;;;5044671;28;20069;-92
2023/07/02 09:53:51;;;;;;;12.50;4.20;;;;;;;;;;5050247;28;20098;-89
2023/07/02 09:56:21;;;;;;;10.95;4.32;;;;;;;;;;5003666;28;20048;-90
2023/07/02 09:58:47;;;;;;;16.33;3.80;;;;;;;;;;4998059;28;20042;-90
2023/07/02 10:01:13;;;;;;;15.45;4.68;;;;;;;;;;5014100;28;20060;-88
2023/07/02 10:03:39;;;;;;;11.48;4.10;;;;;;;;;;5011974;28;20400;-89
2023/07/02 10:06:06;;;;;;;13.48;3.88;;;;;;;;;;5004987;28;20066;-89
2023/07/02 10:08:32;;;;;;;13.50;4.20;;;;;;;;;;5058662;28;20033;-90
2023/07/02 10:11:12;;;;;;;14.00;4.22;;;;;;;;;;5017467;28;21664;-90
2023/07/02 10:13:39;;;;;;;12.05;4.53;;;;;;;;;;5038867;28;20401;-92
2023/07/02 10:16:05;;;;;;;13.20;4.97;;;;;;;;;;5020809;28;21170;-91
2023/07/02 10:18:31;;;;;;;10.63;4.18;;;;;;;;;;5062090;28;20150;-90
2023/07/02 10:20:57;;;;;;;11.77;3.83;;;;;;;;;;4996489;28;20054;-90
2023/07/02 10:23:36;;;;;;;10.00;4.07;;;;;;;;;;5040859;28;20042;-91
2023/07/02 10:26:18;;;;;;;12.05;4.30;;;;;;;;;;5056687;28;20057;-90
2023/07/02 10:28:56;;;;;;;13.68;4.22;;;;;;;;;;5067045;28;20094;-89
2023/07/02 10:31:22;;;;;;;11.63;3.65;;;;;;;;;;5065855;28;20493;-90
2023/07/02 10:33:48;;;;;;;12.30;3.60;;;;;;;;;;5074107;28;20075;-90
2023/07/02 10:36:21;;;;;;;9.40;3.40;;;;;;;;;;5064673;28;20401;-90
2023/07/02 10:38:50;;;;;;;13.90;3.97;;;;;;;;;;5023492;28;20419;-90
2023/07/02 10:41:27;;;;;;;16.13;4.03;;;;;;;;;;5052156;28;20521;-92
2023/07/02 10:43:53;;;;;;;10.95;3.92;;;;;;;;;;5044469;28;20043;-89
2023/07/02 10:46:20;;;;;;;11.63;3.85;;;;;;;;;;5042224;28;20080;-91
2023/07/02 10:48:53;;;;;;;9.07;3.08;;;;;;;;;;5054504;28;20067;-92
2023/07/02 10:51:21;;;;;;;9.45;3.20;;;;;;;;;;5051421;28;20046;-90
2023/07/02 10:53:47;;;;;;;13.30;3.75;;;;;;;;;;5040615;28;20353;-89
2023/07/02 10:56:17;;;;;;;11.07;3.10;;;;;;;;;;5010581;28;20094;-90
2023/07/02 10:58:43;;;;;;;10.98;3.05;;;;;;;;;;4988512;28;20058;-90
2023/07/02 11:01:10;;;;;;;7.88;2.72;;;;;;;;;;5033245;28;20060;-90
2023/07/02 11:03:36;;;;;;;10.13;3.03;;;;;;;;;;5036913;28;20084;-91
2023/07/02 11:06:05;;;;;;;14.35;3.00;;;;;;;;;;5036870;28;20042;-91
2023/07/02 11:08:35;;;;;;;9.93;3.47;;;;;;;;;;4995896;28;20134;-89
2023/07/02 11:11:07;;;;;;;12.40;3.30;;;;;;;;;;5027677;28;20133;-91
2023/07/02 11:13:33;;;;;;;9.68;2.90;;;;;;;;;;5017800;28;20045;-88
2023/07/02 11:15:59;;;;;;;10.43;2.78;;;;;;;;;;5032719;28;20042;-89
2023/07/02 11:18:31;;;;;;;13.02;2.80;;;;;;;;;;5007817;28;20109;-90
2023/07/02 11:20:57;;;;;;;10.25;2.72;;;;;;;;;;4970439;28;20086;-91
2023/07/02 11:23:24;;;;;;;16.73;3.22;;;;;;;;;;4951505;28;20072;-89
2023/07/02 11:25:59;;;;;;;8.10;2.63;;;;;;;;;;4955870;28;20057;-89
2023/07/02 11:28:25;;;;;;;17.58;3.03;;;;;;;;;;4965128;28;20085;-90
2023/07/02 11:30:52;;;;;;;11.63;3.40;;;;;;;;;;4966807;28;20082;-90
2023/07/02 11:33:18;;;;;;;11.35;3.47;;;;;;;;;;4981046;28;20043;-89
2023/07/02 11:35:44;;;;;;;11.88;3.47;;;;;;;;;;4987764;28;20094;-90
2023/07/02 11:38:10;;;;;;;11.35;3.30;;;;;;;;;;4946853;28;20038;-89
2023/07/02 11:40:37;;;;;;;13.40;3.55;;;;;;;;;;4954453;28;20053;-91
2023/07/02 11:43:03;;;;;;;12.30;3.17;;;;;;;;;;4976789;28;20049;-88
2023/07/02 11:45:29;;;;;;;11.02;3.30;;;;;;;;;;5008934;28;20127;-89
2023/07/02 11:47:55;;;;;;;10.27;3.17;;;;;;;;;;4971671;28;20163;-89
2023/07/02 11:50:21;;;;;;;9.02;2.97;;;;;;;;;;4966254;28;20043;-90
2023/07/02 11:52:47;;;;;;;15.88;3.45;;;;;;;;;;4992903;28;20045;-88
2023/07/02 11:55:15;;;;;;;11.45;3.30;;;;;;;;;;4948690;28;20239;-88
2023/07/02 11:57:41;;;;;;;;;;;;;;;;;;4976365;28;20544;-90
2023/07/02 12:00:07;;;;;;;14.23;3.20;;;;;;;;;;4976302;28;20042;-89
2023/07/02 12:02:34;;;;;;;10.95;3.35;;;;;;;;;;4965623;28;20392;-90
2023/07/02 12:05:00;;;;;;;9.45;2.95;;;;;;;;;;4979095;28;20138;-90
2023/07/02 12:07:26;;;;;;;9.77;3.13;;;;;;;;;;4951810;28;20521;-88
2023/07/02 12:09:52;;;;;;;11.93;3.47;;;;;;;;;;4977008;28;20137;-89
2023/07/02 12:12:18;;;;;;;8.27;2.92;;;;;;;;;;4995691;28;20053;-89
2023/07/02 12:14:44;;;;;;;8.52;2.80;;;;;;;;;;4988221;28;20383;-88
2023/07/02 12:17:14;;;;;;;10.80;2.70;;;;;;;;;;5003103;28;20057;-88
2023/07/02 12:19:40;;;;;;;10.63;2.42;;;;;;;;;;5068887;28;20052;-89
2023/07/02 12:22:08;;;;;;;9.43;2.60;;;;;;;;;;5063045;28;20052;-90
2023/07/02 12:24:34;;;;;;;7.70;2.67;;;;;;;;;;5051492;28;20063;-89
2023/07/02 12:27:00;;;;;;;9.43;2.67;;;;;;;;;;5049990;28;20044;-89
2023/07/02 12:29:26;;;;;;;8.43;3.05;;;;;;;;;;5057062;28;21286;-89
2023/07/02 12:31:53;;;;;;;9.93;2.45;;;;;;;;;;5082650;28;20040;-91
2023/07/02 12:34:19;;;;;;;13.57;2.60;;;;;;;;;;5096089;28;20342;-87
2023/07/02 12:36:45;;;;;;;8.20;2.58;;;;;;;;;;5086332;28;20138;-86
2023/07/02 12:39:11;;;;;;;7.60;2.38;;;;;;;;;;5050349;28;20539;-87
2023/07/02 12:41:37;;;;;;;8.63;2.50;;;;;;;;;;5069641;28;20052;-89
2023/07/02 12:44:03;;;;;;;7.00;2.67;;;;;;;;;;5068624;28;20055;-88
2023/07/02 12:46:29;;;;;;;9.88;2.47;;;;;;;;;;5066445;28;20039;-90
2023/07/02 12:48:55;;;;;;;6.35;2.17;;;;;;;;;;5082156;28;20032;-87
2023/07/02 12:51:21;;;;;;;5.15;2.50;;;;;;;;;;5065080;28;20506;-87
2023/07/02 12:53:47;;;;;;;8.70;2.67;;;;;;;;;;5081782;28;20048;-88
2023/07/02 12:56:16;;;;;;;9.50;2.35;;;;;;;;;;5061948;28;20055;-89
2023/07/02 12:58:42;;;;;;;11.95;2.78;;;;;;;;;;5063494;28;20552;-89
2023/07/02 13:01:08;;;;;;;11.68;2.92;;;;;;;;;;5048136;28;20100;-88
2023/07/02 13:03:34;;;;;;;11.73;3.17;;;;;;;;;;5061540;28;20075;-88
2023/07/02 13:06:00;;;;;;;7.15;2.58;;;;;;;;;;5062227;28;20166;-89
2023/07/02 13:08:26;;;;;;;9.15;2.78;;;;;;;;;;5048585;28;20078;-89
2023/07/02 13:10:52;;;;;;;15.05;3.22;;;;;;;;;;5060780;28;20071;-89
2023/07/02 13:13:18;;;;;;;11.57;3.38;;;;;;;;;;5060147;28;20463;-89
2023/07/02 13:15:44;;;;;;;9.40;3.75;;;;;;;;;;5061888;28;20043;-91
2023/07/02 13:18:10;;;;;;;12.57;3.50;;;;;;;;;;5066346;28;20888;-89
2023/07/02 13:20:36;;;;;;;13.27;4.07;;;;;;;;;;5072612;28;20131;-90
2023/07/02 13:23:03;;;;;;;8.65;3.40;;;;;;;;;;5072692;28;20044;-91
2023/07/02 13:25:29;;;;;;;12.35;3.80;;;;;;;;;;5052663;28;20442;-89
2023/07/02 13:27:56;;;;;;;12.40;4.05;;;;;;;;;;5074978;28;20097;-90
2023/07/02 13:30:22;;;;;;;9.75;3.83;;;;;;;;;;5070480;28;20399;-89
2023/07/02 13:32:48;;;;;;;11.23;3.88;;;;;;;;;;5072639;28;20085;-90
2023/07/02 13:35:14;;;;;;;14.55;4.78;;;;;;;;;;5066532;28;20044;-89
2023/07/02 13:37:40;;;;;;;12.07;4.65;;;;;;;;;;5054385;28;20067;-89
2023/07/02 13:40:08;;;;;;;11.60;4.03;;;;;;;;;;5068160;28;20076;-91
2023/07/02 13:42:35;;;;;;;12.80;4.93;;;;;;;;;;5077825;28;21058;-89
2023/07/02 13:45:00;;;;;;;11.98;4.57;;;;;;;;;;5051131;28;20171;-89
2023/07/02 13:47:28;;;;;;;11.20;4.47;;;;;;;;;;5067895;28;20133;-87
2023/07/02 13:49:54;;;;;;;11.88;4.40;;;;;;;;;;5071524;28;20044;-90
2023/07/02 13:52:20;;;;;;;12.43;4.82;;;;;;;;;;5057479;28;21053;-90
2023/07/02 13:54:46;;;;;;;15.55;5.47;;;;;;;;;;5058157;28;20487;-90
2023/07/02 13:57:12;;;;;;;13.88;5.38;;;;;;;;;;5068746;28;20039;-92
2023/07/02 13:59:38;;;;;;;14.40;4.65;;;;;;;;;;5053044;28;20575;-90
2023/07/02 14:02:05;;;;;;;15.90;4.80;;;;;;;;;;5080483;28;20492;-90
2023/07/02 14:04:31;;;;;;;12.50;5.15;;;;;;;;;;5072767;28;20116;-90
2023/07/02 14:06:58;;;;;;;12.15;5.03;;;;;;;;;;5052335;28;20048;-89
2023/07/02 14:09:24;;;;;;;9.30;4.38;;;;;;;;;;5070284;28;20480;-88
2023/07/02 14:11:50;;;;;;;12.68;4.90;;;;;;;;;;5070802;28;20508;-91
2023/07/02 14:14:16;;;;;;;14.43;4.90;;;;;;;;;;5064995;28;20056;-90
2023/07/02 14:16:45;;;;;;;13.48;5.22;;;;;;;;;;5076565;28;21825;-92
2023/07/02 14:19:12;;;;;;;14.00;4.97;;;;;;;;;;5072380;28;20056;-91
2023/07/02 14:21:38;;;;;;;11.20;4.75;;;;;;;;;;5056443;28;20412;-90
2023/07/02 14:24:05;;;;;;;14.05;4.78;;;;;;;;;;5076859;28;20048;-89
2023/07/02 14:26:31;;;;;;;14.93;5.55;;;;;;;;;;5068025;28;20547;-90